Flight Track Log - Related Links

Times and Time Zones

All times are in EDT time to prevent confusion due to time zone crossing. See the TSU216 flight status page for this flight to view local times or setup timezone preferences in your user account.


Time Position Orientation Groundspeed Altitude Reporting Facility
EDT Latitude Longitude Course Direction KTS MPH feet Rate Location/Type
Tue 03:42:12 PM 41.3875 -81.8867 232° Southwest 180 207 1,600  Level Cleveland Center
Tue 03:42:42 PM 41.3728 -81.9114 232° Southwest 185 213 2,500 1,423 Climbing Cleveland Center
Tue 03:43:49 PM 41.3364 -81.9936 240° Southwest 249 287 3,900 1,882 Climbing Cleveland Center
Tue 03:44:24 PM 41.3128 -82.0428 237° Southwest 241 277 5,700 2,653 Climbing Cleveland Center
Tue 03:45:24 PM 41.2825 -82.1167 241° Southwest 275 316 8,100 2,550 Climbing Cleveland Center
Tue 03:46:24 PM 41.2439 -82.2014 239° Southwest 281 323 10,800 2,200 Climbing Cleveland Center
Tue 03:47:24 PM 41.2236 -82.3058 256° West 286 329 12,500 1,600 Climbing Cleveland Center
Tue 03:48:24 PM 41.2467 -82.4306 284° West 327 376 14,000 1,700 Climbing Cleveland Center
Tue 03:49:24 PM 41.2819 -82.5644 289° West 367 422 15,900 2,000 Climbing Cleveland Center
Tue 03:50:24 PM 41.3275 -82.6983 294° West 395 455 18,000 2,050 Climbing Cleveland Center
Tue 03:51:24 PM 41.3689 -82.8217 294° West 402 463 20,000 2,000 Climbing Cleveland Center
Tue 03:52:24 PM 41.4183 -82.9617 295° West 407 468 22,000 1,900 Climbing Cleveland Center
Tue 03:53:24 PM 41.4736 -83.0967 299° West 407 468 23,800 1,700 Climbing Cleveland Center
Tue 03:54:24 PM 41.5311 -83.2350 299° West 419 482 25,400 1,500 Climbing Cleveland Center
Tue 03:55:24 PM 41.5986 -83.3711 304° West 434 499 26,800 1,350 Climbing Cleveland Center
Tue 03:56:24 PM 41.6619 -83.5100 301° West 434 499 28,100 1,350 Climbing Cleveland Center
Tue 03:57:24 PM 41.7247 -83.6603 299° West 445 512 29,500 950 Climbing Cleveland Center
Tue 03:58:24 PM 41.7917 -83.8056 302° West 451 519 30,000 250 Climbing Cleveland Center
Tue 03:59:24 PM 41.8689 -83.9517 305° West 451 519 30,000  Level Cleveland Center
Tue 04:00:24 PM 41.9528 -84.0733 313° West 451 519 30,000  Level Cleveland Center
Tue 04:01:24 PM 42.0389 -84.1872 316° Northwest 433 498 30,000 100 Level Cleveland Center
Tue 04:02:24 PM 42.1167 -84.2925 315° West 433 498 30,200 421 Climbing Cleveland Center
Tue 04:03:18 PM 42.1908 -84.4092 311° West 434 499 30,800 672 Climbing Chicago Center
Tue 04:04:20 PM 42.2756 -84.5281 314° West 440 506 31,500 581 Climbing Chicago Center
Tue 04:05:22 PM 42.3636 -84.6431 316° Northwest 441 507 32,000 242 Climbing Chicago Center
Tue 04:06:24 PM 42.4494 -84.7692 313° West 454 522 32,000  Level Chicago Center
Tue 04:07:26 PM 42.5169 -84.9161 302° West 461 531 32,000  Level Chicago Center
Tue 04:08:28 PM 42.5978 -85.0989 301° West 471 542 32,000  Level Chicago Center
Tue 04:09:30 PM 42.6033 -85.2611 273° West 466 536 32,000  Level Chicago Center
Tue 04:10:32 PM 42.5292 -85.4053 235° Southwest 464 534 32,000 145 Level Chicago Center
Tue 04:11:34 PM 42.4544 -85.5481 235° Southwest 463 533 32,300 484 Climbing Chicago Center
Tue 04:12:36 PM 42.3811 -85.6914 235° Southwest 462 532 33,000 677 Climbing Chicago Center
Tue 04:13:38 PM 42.2939 -85.8214 228° Southwest 468 539 33,700 484 Climbing Chicago Center
Tue 04:14:40 PM 42.1844 -85.9136 212° Southwest 468 539 34,000 145 Climbing Chicago Center
Tue 04:15:42 PM 42.0664 -86.0197 214° Southwest 475 547 34,000  Level Chicago Center
Tue 04:16:44 PM 41.9608 -86.1192 215° Southwest 467 537 34,000  Level Chicago Center
Tue 04:17:46 PM 41.8331 -86.2411 215° Southwest 474 545 34,000  Level Chicago Center
Tue 04:18:48 PM 41.7261 -86.3419 215° Southwest 474 545 34,000  Level Chicago Center
Tue 04:19:50 PM 41.6194 -86.4456 216° Southwest 477 549 34,000  Level Chicago Center
Tue 04:20:52 PM 41.5136 -86.5469 216° Southwest 472 543 34,000  Level Chicago Center
Tue 04:21:54 PM 41.4053 -86.6469 215° Southwest 475 547 34,000  Level Chicago Center
Tue 04:22:56 PM 41.2856 -86.7594 215° Southwest 475 547 34,000  Level Chicago Center
Tue 04:23:58 PM 41.1794 -86.8600 216° Southwest 471 542 34,000  Level Chicago Center
Tue 04:25:00 PM 41.0706 -86.9594 215° Southwest 475 547 34,000  Level Chicago Center
Tue 04:26:02 PM 40.9408 -87.0797 215° Southwest 476 548 34,000  Level Chicago Center
Tue 04:27:04 PM 40.8339 -87.1778 215° Southwest 471 542 34,000  Level Chicago Center
Tue 04:28:06 PM 40.7272 -87.2753 215° Southwest 467 537 34,000  Level Chicago Center
Tue 04:29:21 PM 40.5992 -87.3908 214° Southwest 467 537 34,000  Level Chicago Center
Tue 04:30:23 PM 40.4944 -87.4850 214° Southwest 459 528 34,000  Level Chicago Center
Tue 04:31:25 PM 40.3886 -87.5803 214° Southwest 461 531 34,000  Level Chicago Center
Tue 04:32:27 PM 40.2617 -87.6936 214° Southwest 461 531 34,000  Level Chicago Center
Tue 04:33:29 PM 40.1644 -87.7806 214° Southwest 464 534 34,000  Level Chicago Center
Tue 04:34:31 PM 40.0575 -87.8767 215° Southwest 467 537 34,000  Level Chicago Center
Tue 04:35:33 PM 39.9289 -87.9883 214° Southwest 466 536 34,000  Level Chicago Center
Tue 04:36:36 PM 39.8239 -88.0844 215° Southwest 465 535 34,000  Level Chicago Center
Tue 04:37:38 PM 39.7136 -88.1733 212° Southwest 467 537 34,000  Level Chicago Center
Tue 04:38:40 PM 39.6094 -88.2750 217° Southwest 491 565 34,000  Level Chicago Center
Tue 04:39:42 PM 39.5242 -88.4031 229° Southwest 477 549 34,000  Level Chicago Center
Tue 04:40:44 PM 39.4097 -88.4892 210° Southwest 482 555 34,000  Level Chicago Center
Tue 04:41:46 PM 39.2803 -88.6111 216° Southwest 485 558 34,000  Level Chicago Center
Tue 04:42:48 PM 39.1703 -88.7125 216° Southwest 490 564 34,000  Level Chicago Center
Tue 04:43:50 PM 39.0575 -88.8083 213° Southwest 488 562 34,000  Level Chicago Center
Tue 04:44:52 PM 38.9442 -88.9056 214° Southwest 491 565 34,000  Level Chicago Center
Tue 04:46:09 PM 38.7914 -89.0319 213° Southwest 492 566 34,000  Level Indianapolis Center
Tue 04:47:17 PM 38.6544 -89.1442 213° Southwest 492 566 34,000  Level Kansas City Center
Tue 04:48:19 PM 38.5392 -89.2386 213° Southwest 492 566 34,000  Level Kansas City Center
Tue 04:49:21 PM 38.4147 -89.3406 213° Southwest 493 567 34,000  Level Kansas City Center
Tue 04:50:23 PM 38.2986 -89.4367 213° Southwest 495 570 34,000  Level Kansas City Center
Tue 04:51:25 PM 38.1833 -89.5317 213° Southwest 494 568 34,000  Level Kansas City Center
Tue 04:52:27 PM 38.0594 -89.6342 213° Southwest 493 567 34,000  Level Kansas City Center
Tue 04:53:29 PM 37.9439 -89.7303 213° Southwest 495 570 34,000  Level Kansas City Center
Tue 04:54:31 PM 37.8258 -89.8261 213° Southwest 499 574 34,000  Level Kansas City Center
Tue 04:55:33 PM 37.7086 -89.9219 213° Southwest 500 575 34,000  Level Kansas City Center
Tue 04:56:35 PM 37.5903 -90.0156 212° Southwest 500 575 34,000  Level Kansas City Center
Tue 04:57:37 PM 37.4747 -90.1125 214° Southwest 496 571 34,000  Level Kansas City Center
Tue 04:58:39 PM 37.3550 -90.2028 211° Southwest 499 574 34,000  Level Kansas City Center
Tue 04:59:41 PM 37.2172 -90.3189 214° Southwest 498 573 34,000  Level Kansas City Center
Tue 05:00:43 PM 37.1006 -90.4106 212° Southwest 496 571 34,000  Level Kansas City Center
Tue 05:01:45 PM 36.9822 -90.5039 212° Southwest 499 574 34,000  Level Kansas City Center
Tue 05:02:47 PM 36.8644 -90.5994 213° Southwest 504 580 34,000  Level Kansas City Center
Tue 05:03:49 PM 36.7456 -90.6942 213° Southwest 506 582 34,000  Level Kansas City Center
Tue 05:04:52 PM 36.6033 -90.8042 212° Southwest 505 581 34,000  Level Kansas City Center
Tue 05:06:14 PM 36.4367 -90.9322 212° Southwest 504 580 34,000  Level Memphis Center
Tue 05:07:14 PM 36.3217 -91.0242 213° Southwest 504 580 34,000  Level Memphis Center
Tue 05:08:14 PM 36.1981 -91.1183 212° Southwest 504 580 34,000  Level Memphis Center
Tue 05:09:14 PM 36.0764 -91.2069 210° Southwest 504 580 34,000  Level Memphis Center
Tue 05:10:14 PM 35.9611 -91.2981 213° Southwest 504 580 34,000  Level Memphis Center
Tue 05:11:14 PM 35.8439 -91.3839 211° Southwest 504 580 34,000  Level Memphis Center
Tue 05:12:14 PM 35.7325 -91.4747 214° Southwest 498 573 34,000  Level Memphis Center
Tue 05:13:14 PM 35.6128 -91.5597 210° Southwest 498 573 34,000  Level Memphis Center
Tue 05:14:14 PM 35.4972 -91.6500 212° Southwest 504 580 34,000  Level Memphis Center
Tue 05:15:14 PM 35.3794 -91.7372 211° Southwest 504 580 34,000  Level Memphis Center
Tue 05:16:14 PM 35.2617 -91.8244 211° Southwest 504 580 34,000  Level Memphis Center
Tue 05:17:14 PM 35.1436 -91.9164 212° Southwest 504 580 34,000  Level Memphis Center
Tue 05:18:14 PM 35.0406 -91.9931 211° Southwest 499 574 34,000  Level Memphis Center
Tue 05:19:14 PM 34.9247 -92.0794 211° Southwest 499 574 34,000  Level Memphis Center
Tue 05:20:14 PM 34.8086 -92.1656 211° Southwest 504 580 34,000  Level Memphis Center
Tue 05:21:14 PM 34.6906 -92.2539 212° Southwest 504 580 34,000  Level Memphis Center
Tue 05:22:15 PM 34.5744 -92.3397 211° Southwest 504 580 34,000  Level Memphis Center
Tue 05:23:14 PM 34.4583 -92.4225 210° Southwest 504 580 34,000  Level Memphis Center
Tue 05:24:14 PM 34.3419 -92.5078 211° Southwest 504 580 34,000  Level Memphis Center
Tue 05:25:14 PM 34.2236 -92.5928 211° Southwest 504 580 34,000  Level Memphis Center
Tue 05:26:14 PM 34.1008 -92.6900 213° Southwest 499 574 34,000  Level Memphis Center
Tue 05:27:14 PM 33.9844 -92.7744 211° Southwest 488 562 34,000  Level Memphis Center
Tue 05:29:29 PM 33.7372 -92.9503 211° Southwest 474 545 34,000  Level Fort Worth Center
Tue 05:30:29 PM 33.6211 -93.0308 210° Southwest 480 552 34,000  Level Fort Worth Center
Tue 05:31:29 PM 33.4969 -93.1217 211° Southwest 485 558 34,000  Level Fort Worth Center
Tue 05:32:29 PM 33.3786 -93.2047 210° Southwest 485 558 34,000  Level Fort Worth Center
Tue 05:33:29 PM 33.2603 -93.2872 210° Southwest 485 558 34,000  Level Fort Worth Center
Tue 05:34:29 PM 33.1442 -93.3694 211° Southwest 485 558 34,000  Level Fort Worth Center
Tue 05:35:29 PM 33.0256 -93.4517 210° Southwest 491 565 34,000  Level Fort Worth Center
Tue 05:36:29 PM 32.9072 -93.5336 210° Southwest 496 571 34,000  Level Fort Worth Center
Tue 05:37:29 PM 32.7928 -93.6178 212° Southwest 496 571 34,000  Level Fort Worth Center
Tue 05:38:29 PM 32.6722 -93.7017 210° Southwest 496 571 34,000  Level Fort Worth Center
Tue 05:39:29 PM 32.5536 -93.7831 210° Southwest 496 571 34,000  Level Fort Worth Center
Tue 05:40:29 PM 32.4389 -93.8639 211° Southwest 496 571 34,000  Level Fort Worth Center
Tue 05:41:29 PM 32.3203 -93.9472 211° Southwest 496 571 34,000  Level Fort Worth Center
Tue 05:42:29 PM 32.2014 -94.0278 210° Southwest 496 571 34,000  Level Fort Worth Center
Tue 05:43:29 PM 32.0867 -94.1131 212° Southwest 496 571 34,000  Level Fort Worth Center
Tue 05:44:29 PM 31.9656 -94.1908 209° Southwest 496 571 34,000  Level Fort Worth Center
Tue 05:46:14 PM 31.7675 -94.3044 206° Southwest 495 570 34,000  Level Houston Center
Tue 05:47:16 PM 31.6247 -94.4025 210° Southwest 494 568 34,000  Level Houston Center
Tue 05:48:18 PM 31.5061 -94.4883 212° Southwest 499 574 34,000  Level Houston Center
Tue 05:49:20 PM 31.3886 -94.5736 212° Southwest 496 571 34,000  Level Houston Center
Tue 05:50:22 PM 31.2583 -94.6678 212° Southwest 512 589 34,000  Level Houston Center
Tue 05:51:24 PM 31.1436 -94.7650 216° Southwest 509 586 34,000  Level Houston Center
Tue 05:52:26 PM 31.0436 -94.8875 226° Southwest 517 595 34,000  Level Houston Center
Tue 05:53:28 PM 30.9514 -95.0117 229° Southwest 508 585 34,000  Level Houston Center
Tue 05:54:30 PM 30.8608 -95.1375 230° Southwest 506 582 34,000  Level Houston Center
Tue 05:55:32 PM 30.7697 -95.2642 230° Southwest 509 586 34,000  Level Houston Center
Tue 05:56:34 PM 30.6786 -95.3928 231° Southwest 512 589 34,000  Level Houston Center
Tue 05:57:36 PM 30.5733 -95.5403 230° Southwest 508 585 34,000  Level Houston Center
Tue 05:58:38 PM 30.4844 -95.6683 231° Southwest 509 586 34,000  Level Houston Center
Tue 05:59:41 PM 30.3958 -95.7975 232° Southwest 514 592 34,000  Level Houston Center
Tue 06:00:43 PM 30.3053 -95.9239 230° Southwest 515 593 34,000  Level Houston Center
Tue 06:01:45 PM 30.1797 -95.9858 203° Southwest 499 574 34,000  Level Houston Center
Tue 06:02:47 PM 30.0317 -96.0286 194° South 493 567 34,000  Level Houston Center
Tue 06:03:49 PM 29.8964 -96.0581 191° South 493 567 34,000  Level Houston Center
Tue 06:04:51 PM 29.7606 -96.0764 187° South 488 562 34,000 -49 Level Houston Center
Tue 06:05:52 PM 29.6297 -96.1217 197° South 489 563 33,900  Descending Houston Center
Tue 06:06:54 PM 29.4817 -96.2147 209° Southwest 501 577 34,000 48 Climbing Houston Center
Tue 06:07:56 PM 29.3522 -96.2733 202° Southwest 496 571 34,000  Level Houston Center
Tue 06:08:58 PM 29.2181 -96.3222 198° South 498 573 34,000  Level Houston Center
Tue 06:10:00 PM 29.0842 -96.3672 196° South 498 573 34,000  Level Houston Center
Tue 06:11:02 PM 28.9822 -96.4775 223° Southwest 513 590 34,000  Level Houston Center
Tue 06:12:04 PM 28.9128 -96.6214 241° Southwest 514 592 34,000  Level Houston Center
Tue 06:13:06 PM 28.8447 -96.7653 242° Southwest 512 589 34,000  Level Houston Center
Tue 06:14:08 PM 28.7767 -96.9106 242° Southwest 515 593 34,000  Level Houston Center
Tue 06:15:10 PM 28.6947 -97.0828 242° Southwest 513 590 34,000  Level Houston Center
Tue 06:16:12 PM 28.6258 -97.2250 241° Southwest 513 590 34,000  Level Houston Center
Tue 06:17:14 PM 28.5553 -97.3661 240° Southwest 513 590 34,000  Level Houston Center
Tue 06:18:16 PM 28.4850 -97.5075 241° Southwest 513 590 34,000  Level Houston Center
Tue 06:19:18 PM 28.4144 -97.6464 240° Southwest 509 586 34,000  Level Houston Center
Tue 06:20:20 PM 28.3442 -97.7850 240° Southwest 507 583 34,000  Level Houston Center
Tue 06:21:22 PM 28.2764 -97.9231 241° Southwest 502 578 34,000  Level Houston Center
Tue 06:22:24 PM 28.2017 -98.0719 240° Southwest 497 572 34,000  Level Houston Center
Tue 06:23:26 PM 28.1339 -98.2072 240° Southwest 494 568 34,000  Level Houston Center
Tue 06:24:28 PM 28.0653 -98.3428 240° Southwest 496 571 34,000  Level Houston Center
Tue 06:25:30 PM 27.9817 -98.5050 240° Southwest 500 575 34,000  Level Houston Center
Tue 06:26:32 PM 27.9139 -98.6408 241° Southwest 498 573 34,000  Level Houston Center
Tue 06:27:34 PM 27.8439 -98.7761 240° Southwest 502 578 34,000  Level Houston Center
Tue 06:28:36 PM 27.7744 -98.9097 240° Southwest 500 575 34,000  Level Houston Center
Tue 06:29:38 PM 27.7081 -99.0450 241° Southwest 500 575 34,000  Level Houston Center
Tue 06:30:40 PM 27.6256 -99.2069 240° Southwest 505 581 34,000  Level Houston Center
Tue 06:31:42 PM 27.5564 -99.3403 240° Southwest 500 575 34,000  Level Houston Center
Tue 06:32:44 PM 27.4861 -99.4739 239° Southwest 500 575 34,000  Level Houston Center
Tue 06:34:00 PM 27.3625 -99.6065 213° Southwest  Level FlightAware Approximate
Tue 06:41:00 PM 26.5883 -100.1592 215° Southwest  Level FlightAware Approximate
Tue 06:42:00 PM 26.4807 -100.2436 215° Southwest  Level FlightAware Approximate
Tue 06:43:00 PM 26.3731 -100.3279 215° Southwest  Level FlightAware Approximate
Tue 06:44:00 PM 26.2654 -100.4120 215° Southwest  Level FlightAware Approximate
Tue 06:45:00 PM 26.1549 -100.4912 211° Southwest  Level FlightAware Approximate
Tue 06:46:00 PM 26.0418 -100.5659 210° Southwest  Level FlightAware Approximate
Tue 06:47:00 PM 25.9277 -100.6385 210° Southwest  Level FlightAware Approximate
Tue 06:48:00 PM 25.8167 -100.7167 214° Southwest  Level FlightAware Approximate
Tue 06:49:00 PM 25.7089 -100.7997 211° Southwest  Level FlightAware Approximate
Tue 06:50:00 PM 25.5942 -100.8710 214° Southwest  Level FlightAware Approximate
Tue 06:51:00 PM 25.5333 -100.9167 North  Level FlightAware Approximate
Tue 06:52:00 PM 25.5495 -100.9287 North  Level Estimated
Tue 06:53:00 PM 25.5495 -100.9287 North  Level Estimated

Login

Don't have an account? Register now (free) for customized features, flight alerts, and more!